createdAt,value
2018-04-10T00:01:23.460Z,13.02
2018-04-10T00:03:51.920Z,13.02
2018-04-10T00:06:20.432Z,12.91
2018-04-10T00:08:48.924Z,12.98
2018-04-10T00:11:17.379Z,12.96
2018-04-10T00:13:45.860Z,12.91
2018-04-10T00:16:14.374Z,12.89
2018-04-10T00:18:42.833Z,12.83
2018-04-10T00:21:11.323Z,12.84
2018-04-10T00:23:39.772Z,12.84
2018-04-10T00:26:08.252Z,12.81
2018-04-10T00:28:36.746Z,12.81
2018-04-10T00:31:05.224Z,12.77
2018-04-10T00:33:33.712Z,12.75
2018-04-10T00:36:02.216Z,12.75
2018-04-10T00:38:30.696Z,12.72
2018-04-10T00:40:59.183Z,12.69
2018-04-10T00:43:27.672Z,12.68
2018-04-10T00:45:56.152Z,12.65
2018-04-10T00:48:24.646Z,12.58
2018-04-10T00:50:53.131Z,12.62
2018-04-10T00:53:33.261Z,12.59
2018-04-10T00:56:01.747Z,12.56
2018-04-10T00:58:30.208Z,12.52
2018-04-10T01:00:58.720Z,12.50
2018-04-10T01:03:27.519Z,12.46
2018-04-10T01:05:55.980Z,12.43
2018-04-10T01:08:24.537Z,12.41
2018-04-10T01:10:53.010Z,12.40
2018-04-10T01:13:21.493Z,12.40
2018-04-10T01:15:49.990Z,12.34
2018-04-10T01:18:18.497Z,12.36
2018-04-10T01:20:47.011Z,12.33
2018-04-10T01:23:15.565Z,12.29
2018-04-10T01:25:44.018Z,12.26
2018-04-10T01:28:12.527Z,12.13
2018-04-10T01:30:40.991Z,12.15
2018-04-10T01:33:09.493Z,12.13
2018-04-10T01:35:38.000Z,12.08
2018-04-10T01:38:06.468Z,12.14
2018-04-10T01:40:34.960Z,12.11
2018-04-10T01:43:03.427Z,12.06
2018-04-10T01:45:31.930Z,12.08
2018-04-10T01:48:00.432Z,12.07
2018-04-10T01:50:28.915Z,12.04
2018-04-10T01:52:57.376Z,12.01
2018-04-10T01:55:25.876Z,12.01
2018-04-10T01:57:54.352Z,11.99
2018-04-10T02:00:22.848Z,11.98
2018-04-10T02:02:51.307Z,11.91
2018-04-10T02:05:19.831Z,11.78
2018-04-10T02:07:48.296Z,11.76
2018-04-10T02:10:16.793Z,11.62
2018-04-10T02:12:45.296Z,11.44
2018-04-10T02:15:13.809Z,11.30
2018-04-10T02:17:42.275Z,11.21
2018-04-10T02:20:10.736Z,11.15
2018-04-10T02:22:39.233Z,11.35
2018-04-10T02:25:07.728Z,11.41
2018-04-10T02:27:36.263Z,11.36
2018-04-10T02:30:04.759Z,11.34
2018-04-10T02:32:33.271Z,11.40
2018-04-10T02:35:01.727Z,11.43
2018-04-10T02:37:30.219Z,11.46
2018-04-10T02:39:58.698Z,11.47
2018-04-10T02:42:27.244Z,11.49
2018-04-10T02:44:55.749Z,11.42
2018-04-10T02:47:24.256Z,11.47
2018-04-10T02:49:52.756Z,11.51
2018-04-10T02:52:21.251Z,11.41
2018-04-10T02:54:49.756Z,11.54
2018-04-10T02:57:18.264Z,11.47
2018-04-10T02:59:46.716Z,11.43
2018-04-10T03:02:15.252Z,11.47
2018-04-10T03:04:43.714Z,11.48
2018-04-10T03:07:12.226Z,11.48
2018-04-10T03:09:40.728Z,11.51
2018-04-10T03:12:09.193Z,11.53
2018-04-10T03:14:37.697Z,11.50
2018-04-10T03:17:06.155Z,11.45
2018-04-10T03:19:34.652Z,11.40
2018-04-10T03:22:03.153Z,11.32
2018-04-10T03:24:31.611Z,11.24
2018-04-10T03:27:00.109Z,11.17
2018-04-10T03:29:28.644Z,11.16
2018-04-10T03:31:57.103Z,11.04
2018-04-10T03:34:25.629Z,11.00
2018-04-10T03:36:54.101Z,10.92
2018-04-10T03:39:22.609Z,10.95
2018-04-10T03:41:51.064Z,10.91
2018-04-10T03:44:19.556Z,10.81
2018-04-10T03:46:48.011Z,10.89
2018-04-10T03:49:16.532Z,10.85
2018-04-10T03:51:45.000Z,10.79
2018-04-10T03:54:13.459Z,10.74
2018-04-10T03:56:42.000Z,10.63
2018-04-10T03:59:10.442Z,10.56
2018-04-10T04:01:38.935Z,10.59
2018-04-10T04:04:07.402Z,10.50
2018-04-10T04:06:35.900Z,10.54
2018-04-10T04:09:04.494Z,10.57
2018-04-10T04:11:32.991Z,10.58
2018-04-10T04:14:01.579Z,10.62
2018-04-10T04:16:41.764Z,10.67
2018-04-10T04:19:21.917Z,10.74
2018-04-10T04:24:53.229Z,10.93
2018-04-10T04:27:21.715Z,10.95
2018-04-10T04:29:50.288Z,11.04
2018-04-10T04:32:18.740Z,11.14
2018-04-10T04:34:47.240Z,11.33
2018-04-10T04:37:15.703Z,11.52
2018-04-10T04:39:44.172Z,11.56
2018-04-10T04:42:12.695Z,11.74
2018-04-10T04:44:41.172Z,11.88
2018-04-10T04:47:09.684Z,11.90
2018-04-10T04:49:38.164Z,12.11
2018-04-10T04:52:06.639Z,12.25
2018-04-10T04:54:35.154Z,12.36
2018-04-10T04:57:03.608Z,12.51
2018-04-10T04:59:32.136Z,12.61
2018-04-10T05:02:00.625Z,12.84
2018-04-10T05:04:29.123Z,12.92
2018-04-10T05:06:57.627Z,12.99
2018-04-10T05:09:26.151Z,13.17
2018-04-10T05:11:54.678Z,13.27
2018-04-10T05:14:23.154Z,13.42
2018-04-10T05:16:51.651Z,13.63
2018-04-10T05:19:20.121Z,13.85
2018-04-10T05:21:48.622Z,14.12
2018-04-10T05:24:17.076Z,14.34
2018-04-10T05:26:45.576Z,14.57
2018-04-10T05:29:14.088Z,14.74
2018-04-10T05:31:42.917Z,14.95
2018-04-10T05:34:11.422Z,15.16
2018-04-10T05:36:39.892Z,15.35
2018-04-10T05:39:08.404Z,15.38
2018-04-10T05:41:36.912Z,15.50
2018-04-10T05:44:05.420Z,15.45
2018-04-10T05:46:33.928Z,15.48
2018-04-10T05:49:02.433Z,15.62
2018-04-10T05:51:30.998Z,15.62
2018-04-10T05:53:59.514Z,16.12
2018-04-10T05:56:27.976Z,16.16
2018-04-10T05:58:56.489Z,16.19
2018-04-10T06:01:24.948Z,16.26
2018-04-10T06:03:53.457Z,16.49
2018-04-10T06:06:22.040Z,16.51
2018-04-10T06:08:50.505Z,16.63
2018-04-10T06:11:19.102Z,16.56
2018-04-10T06:13:47.603Z,16.59
2018-04-10T06:16:16.109Z,16.81
2018-04-10T06:18:44.640Z,16.77
2018-04-10T06:21:13.158Z,16.59
2018-04-10T06:23:41.652Z,16.52
2018-04-10T06:26:10.120Z,17.02
2018-04-10T06:28:38.616Z,17.01
2018-04-10T06:31:07.083Z,17.39
2018-04-10T06:33:35.583Z,17.44
2018-04-10T06:36:04.095Z,17.31
2018-04-10T06:38:32.610Z,17.53
2018-04-10T06:41:01.224Z,17.62
2018-04-10T06:43:29.714Z,18.06
2018-04-10T06:45:58.254Z,18.14
2018-04-10T06:48:27.406Z,18.00
2018-04-10T06:50:56.076Z,17.95
2018-04-10T06:53:24.632Z,18.12
2018-04-10T06:55:53.092Z,18.12
2018-04-10T06:58:21.586Z,17.95
2018-04-10T07:00:50.116Z,18.17
2018-04-10T07:03:18.644Z,18.04
2018-04-10T07:05:47.142Z,18.34
2018-04-10T07:08:15.713Z,18.18
2018-04-10T07:10:44.251Z,18.39
2018-04-10T07:13:12.706Z,18.40
2018-04-10T07:15:42.927Z,18.35
2018-04-10T07:18:13.132Z,18.56
2018-04-10T07:20:42.283Z,18.71
2018-04-10T07:23:10.760Z,18.87
2018-04-10T07:25:39.271Z,18.74
2018-04-10T07:28:07.814Z,18.95
2018-04-10T07:30:36.358Z,19.06
2018-04-10T07:33:04.892Z,19.04
2018-04-10T07:35:33.372Z,19.06
2018-04-10T07:38:01.969Z,19.15
2018-04-10T07:40:30.466Z,19.44
2018-04-10T07:42:58.936Z,19.41
2018-04-10T07:45:27.441Z,19.60
2018-04-10T07:47:55.917Z,19.55
2018-04-10T07:50:24.432Z,19.82
2018-04-10T07:52:53.002Z,19.75
2018-04-10T07:55:21.468Z,19.72
2018-04-10T07:57:49.913Z,19.81
2018-04-10T08:00:18.429Z,19.92
2018-04-10T08:02:46.889Z,19.98
2018-04-10T08:05:15.420Z,20.02
2018-04-10T08:07:43.898Z,20.25
2018-04-10T08:10:12.441Z,20.25
2018-04-10T08:12:40.949Z,20.26
2018-04-10T08:15:09.452Z,20.40
2018-04-10T08:17:37.934Z,20.52
2018-04-10T08:20:06.443Z,20.56
2018-04-10T08:22:34.976Z,20.83
2018-04-10T08:25:03.518Z,20.82
2018-04-10T08:27:32.073Z,20.96
2018-04-10T08:30:00.562Z,21.27
2018-04-10T08:32:29.048Z,21.24
2018-04-10T08:34:57.576Z,21.48
2018-04-10T08:37:26.019Z,21.47
2018-04-10T08:39:54.563Z,21.51
2018-04-10T08:42:23.037Z,21.60
2018-04-10T08:44:51.520Z,21.59
2018-04-10T08:47:20.003Z,21.77
2018-04-10T08:49:48.503Z,22.02
2018-04-10T08:52:17.003Z,21.97
2018-04-10T08:54:45.540Z,22.03
2018-04-10T08:57:13.995Z,22.24
2018-04-10T08:59:42.470Z,21.72
2018-04-10T09:02:10.982Z,21.93
2018-04-10T09:04:39.469Z,21.86
2018-04-10T09:07:07.944Z,21.98
2018-04-10T09:09:36.444Z,21.95
2018-04-10T09:14:32.480Z,22.51
2018-04-10T09:17:00.946Z,22.40
2018-04-10T09:19:29.458Z,22.66
2018-04-10T09:21:57.961Z,22.78
2018-04-10T09:24:26.422Z,22.92
2018-04-10T09:26:54.932Z,23.04
2018-04-10T09:29:23.399Z,23.17
2018-04-10T09:31:51.909Z,22.88
2018-04-10T09:34:20.357Z,23.04
2018-04-10T09:36:48.850Z,23.11
2018-04-10T09:39:17.341Z,23.28
2018-04-10T09:41:45.796Z,23.35
2018-04-10T09:44:14.288Z,23.20
2018-04-10T09:46:42.792Z,23.43
2018-04-10T09:49:11.244Z,23.44
2018-04-10T09:51:39.749Z,23.50
2018-04-10T09:54:08.228Z,23.63
2018-04-10T09:56:36.725Z,23.66
2018-04-10T09:59:05.235Z,23.60
2018-04-10T10:01:33.725Z,23.65
2018-04-10T10:04:02.210Z,23.62
2018-04-10T10:06:30.696Z,23.64
2018-04-10T10:08:59.158Z,23.66
2018-04-10T10:11:27.664Z,23.74
2018-04-10T10:13:56.117Z,23.83
2018-04-10T10:16:24.581Z,23.98
2018-04-10T10:18:53.072Z,23.81
2018-04-10T10:21:21.528Z,23.77
2018-04-10T10:23:49.984Z,23.75
2018-04-10T10:26:18.532Z,23.97
2018-04-10T10:28:47.008Z,24.14
2018-04-10T10:31:15.506Z,23.94
2018-04-10T10:33:44.012Z,24.17
2018-04-10T10:36:12.522Z,24.20
2018-04-10T10:38:41.024Z,24.17
2018-04-10T10:41:09.532Z,24.18
2018-04-10T10:43:38.032Z,24.39
2018-04-10T10:46:06.557Z,24.44
2018-04-10T10:48:35.040Z,24.44
2018-04-10T10:51:03.485Z,24.36
2018-04-10T10:53:31.996Z,24.41
2018-04-10T10:56:00.476Z,24.44
2018-04-10T10:58:29.780Z,24.32
2018-04-10T11:00:58.283Z,24.30
2018-04-10T11:03:26.788Z,24.39
2018-04-10T11:05:55.284Z,24.30
2018-04-10T11:08:23.770Z,24.25
2018-04-10T11:10:52.216Z,24.20
2018-04-10T11:13:20.720Z,24.18
2018-04-10T11:15:49.200Z,24.06
2018-04-10T11:18:17.660Z,24.10
2018-04-10T11:20:46.168Z,24.17
2018-04-10T11:23:14.632Z,24.14
2018-04-10T11:25:43.104Z,24.18
2018-04-10T11:28:11.600Z,24.10
2018-04-10T11:30:40.059Z,24.09
2018-04-10T11:33:08.581Z,24.15
2018-04-10T11:35:37.050Z,24.17
2018-04-10T11:38:05.521Z,24.17
2018-04-10T11:40:34.034Z,24.23
2018-04-10T11:43:02.527Z,24.26
2018-04-10T11:45:31.020Z,24.29
2018-04-10T11:47:59.512Z,24.21
2018-04-10T11:50:27.996Z,24.25
2018-04-10T11:52:56.485Z,24.28
2018-04-10T11:55:24.962Z,24.24
2018-04-10T11:57:53.497Z,24.25
2018-04-10T12:00:21.988Z,24.25
2018-04-10T12:02:50.470Z,24.15
2018-04-10T12:05:19.938Z,24.17
2018-04-10T12:07:48.446Z,24.26
2018-04-10T12:10:16.908Z,24.30
2018-04-10T12:12:45.390Z,24.26
2018-04-10T12:15:13.841Z,24.36
2018-04-10T12:17:42.335Z,24.37
2018-04-10T12:20:10.832Z,24.39
2018-04-10T12:22:39.340Z,24.37
2018-04-10T12:25:07.832Z,24.33
2018-04-10T12:27:36.294Z,24.39
2018-04-10T12:30:04.829Z,24.44
2018-04-10T12:32:33.288Z,24.51
2018-04-10T12:35:01.852Z,24.50
2018-04-10T12:37:30.345Z,24.65
2018-04-10T12:39:58.788Z,24.63
2018-04-10T12:42:27.276Z,24.70
2018-04-10T12:44:55.788Z,24.78
2018-04-10T12:47:24.331Z,24.82
2018-04-10T12:49:52.840Z,24.86
2018-04-10T12:52:21.338Z,24.81
2018-04-10T12:54:49.831Z,24.85
2018-04-10T12:57:18.270Z,24.90
2018-04-10T12:59:46.760Z,24.89
2018-04-10T13:02:15.275Z,24.95
2018-04-10T13:04:43.802Z,24.97
2018-04-10T13:07:12.321Z,25.13
2018-04-10T13:09:40.789Z,25.10
2018-04-10T13:12:09.324Z,25.16
2018-04-10T13:14:37.823Z,25.13
2018-04-10T13:17:06.276Z,25.20
2018-04-10T13:19:34.768Z,25.18
2018-04-10T13:22:03.285Z,25.12
2018-04-10T13:24:31.738Z,25.14
2018-04-10T13:27:00.244Z,25.17
2018-04-10T13:29:28.732Z,25.25
2018-04-10T13:31:57.229Z,25.25
2018-04-10T13:34:25.732Z,25.31
2018-04-10T13:36:54.216Z,25.31
2018-04-10T13:39:22.713Z,25.23
2018-04-10T13:41:51.199Z,25.31
2018-04-10T13:44:19.647Z,25.38
2018-04-10T13:46:48.201Z,25.22
2018-04-10T13:49:16.647Z,25.28
2018-04-10T13:51:45.176Z,25.27
2018-04-10T13:54:13.679Z,25.27
2018-04-10T13:56:42.180Z,25.27
2018-04-10T13:59:10.692Z,25.29
2018-04-10T14:01:39.248Z,25.20
2018-04-10T14:04:07.791Z,25.31
2018-04-10T14:06:36.248Z,25.32
2018-04-10T14:09:04.799Z,25.33
2018-04-10T14:11:33.326Z,25.36
2018-04-10T14:14:01.844Z,25.37
2018-04-10T14:16:30.336Z,25.40
2018-04-10T14:18:58.792Z,25.42
2018-04-10T14:21:27.260Z,25.37
2018-04-10T14:23:55.776Z,25.33
2018-04-10T14:26:24.232Z,25.27
2018-04-10T14:28:52.698Z,25.33
2018-04-10T14:31:21.208Z,25.23
2018-04-10T14:33:49.676Z,25.25
2018-04-10T14:36:18.195Z,25.10
2018-04-10T14:38:46.679Z,25.22
2018-04-10T14:41:15.172Z,25.32
2018-04-10T14:43:43.704Z,25.34
2018-04-10T14:46:12.160Z,25.37
2018-04-10T14:48:40.660Z,25.41
2018-04-10T14:51:09.148Z,25.27
2018-04-10T14:53:37.612Z,25.33
2018-04-10T14:56:06.096Z,25.18
2018-04-10T14:58:34.583Z,25.21
2018-04-10T15:01:03.063Z,25.11
2018-04-10T15:03:31.552Z,25.17
2018-04-10T15:06:00.003Z,25.03
2018-04-10T15:08:28.485Z,25.08
2018-04-10T15:10:56.935Z,25.07
2018-04-10T15:13:25.415Z,25.01
2018-04-10T15:15:53.882Z,24.99
2018-04-10T15:18:22.375Z,24.97
2018-04-10T15:20:50.836Z,24.94
2018-04-10T15:23:19.326Z,24.81
2018-04-10T15:25:47.776Z,24.89
2018-04-10T15:28:16.272Z,24.93
2018-04-10T15:30:44.772Z,24.95
2018-04-10T15:33:13.262Z,24.99
2018-04-10T15:35:41.716Z,24.99
2018-04-10T15:38:10.195Z,24.99
2018-04-10T15:40:38.652Z,24.92
2018-04-10T15:43:07.155Z,24.87
2018-04-10T15:45:35.648Z,24.83
2018-04-10T15:48:04.111Z,24.70
2018-04-10T15:50:32.600Z,24.54
2018-04-10T15:53:01.036Z,24.61
2018-04-10T15:55:29.550Z,24.53
2018-04-10T15:57:58.044Z,24.48
2018-04-10T16:00:26.507Z,24.40
2018-04-10T16:02:55.004Z,24.34
2018-04-10T16:05:23.475Z,24.23
2018-04-10T16:07:51.943Z,24.22
2018-04-10T16:10:20.481Z,24.16
2018-04-10T16:12:48.944Z,24.11
2018-04-10T16:15:17.393Z,23.99
2018-04-10T16:17:45.865Z,23.88
2018-04-10T16:20:14.320Z,23.81
2018-04-10T16:22:42.800Z,23.76
2018-04-10T16:25:11.300Z,23.66
2018-04-10T16:27:39.806Z,23.62
2018-04-10T16:30:08.300Z,23.52
2018-04-10T16:32:36.796Z,23.45
2018-04-10T16:37:32.770Z,23.27
2018-04-10T16:40:01.278Z,23.13
2018-04-10T16:42:29.744Z,23.13
2018-04-10T16:44:58.236Z,22.97
2018-04-10T16:47:26.718Z,22.98
2018-04-10T16:49:55.209Z,22.87
2018-04-10T16:52:23.692Z,22.82
2018-04-10T16:54:52.152Z,22.75
2018-04-10T16:57:20.657Z,22.75
2018-04-10T16:59:49.112Z,22.62
2018-04-10T17:02:17.611Z,22.60
2018-04-10T17:04:46.121Z,22.50
2018-04-10T17:07:14.586Z,22.46
2018-04-10T17:09:43.089Z,22.42
2018-04-10T17:12:11.552Z,22.37
2018-04-10T17:14:40.054Z,22.27
2018-04-10T17:17:08.540Z,22.25
2018-04-10T17:19:36.991Z,22.06
2018-04-10T17:22:05.546Z,22.14
2018-04-10T17:24:34.021Z,22.05
2018-04-10T17:27:02.475Z,21.90
2018-04-10T17:29:30.990Z,21.85
2018-04-10T17:31:59.463Z,21.82
2018-04-10T17:34:27.967Z,21.76
2018-04-10T17:36:56.417Z,21.70
2018-04-10T17:39:24.947Z,21.69
2018-04-10T17:41:53.464Z,21.65
2018-04-10T17:44:21.957Z,21.65
2018-04-10T17:46:50.515Z,21.64
2018-04-10T17:49:18.976Z,21.62
2018-04-10T17:51:47.441Z,21.59
2018-04-10T17:54:15.920Z,21.52
2018-04-10T17:56:44.374Z,21.49
2018-04-10T17:59:12.883Z,21.44
2018-04-10T18:01:41.341Z,21.42
2018-04-10T18:04:09.850Z,21.39
2018-04-10T18:06:38.318Z,21.34
2018-04-10T18:09:06.831Z,21.32
2018-04-10T18:11:35.271Z,21.29
2018-04-10T18:14:03.788Z,21.23
2018-04-10T18:16:32.248Z,21.21
2018-04-10T18:19:00.917Z,21.10
2018-04-10T18:21:29.453Z,21.13
2018-04-10T18:23:57.984Z,20.98
2018-04-10T18:26:26.516Z,20.92
2018-04-10T18:28:55.016Z,20.93
2018-04-10T18:31:23.516Z,20.90
2018-04-10T18:33:51.997Z,20.92
2018-04-10T18:36:20.514Z,20.82
2018-04-10T18:38:48.980Z,20.83
2018-04-10T18:41:17.473Z,20.80
2018-04-10T18:43:45.936Z,20.81
2018-04-10T18:46:14.440Z,20.68
2018-04-10T18:48:42.888Z,20.62
2018-04-10T18:51:11.388Z,20.39
2018-04-10T18:53:39.868Z,20.38
2018-04-10T18:56:08.364Z,20.50
2018-04-10T18:58:36.859Z,20.53
2018-04-10T19:01:05.319Z,20.51
2018-04-10T19:03:33.824Z,20.34
2018-04-10T19:06:02.278Z,20.38
2018-04-10T19:08:30.784Z,20.28
2018-04-10T19:10:59.239Z,20.30
2018-04-10T19:13:27.947Z,20.29
2018-04-10T19:15:56.433Z,20.22
2018-04-10T19:18:24.931Z,20.01
2018-04-10T19:20:53.392Z,20.02
2018-04-10T19:23:21.845Z,20.02
2018-04-10T19:25:50.314Z,19.83
2018-04-10T19:28:18.827Z,19.74
2018-04-10T19:30:47.284Z,19.80
2018-04-10T19:33:15.770Z,19.69
2018-04-10T19:35:44.239Z,19.59
2018-04-10T19:38:12.727Z,19.60
2018-04-10T19:40:41.260Z,19.57
2018-04-10T19:43:09.724Z,19.54
2018-04-10T19:45:38.244Z,19.56
2018-04-10T19:48:06.705Z,19.44
2018-04-10T19:50:35.193Z,19.48
2018-04-10T19:53:03.716Z,19.29
2018-04-10T19:55:32.212Z,19.39
2018-04-10T19:58:00.680Z,19.39
2018-04-10T20:00:29.164Z,19.22
2018-04-10T20:02:57.620Z,19.30
2018-04-10T20:05:26.111Z,19.19
2018-04-10T20:07:54.576Z,19.08
2018-04-10T20:10:23.080Z,18.86
2018-04-10T20:12:51.548Z,18.97
2018-04-10T20:15:20.003Z,19.05
2018-04-10T20:17:48.496Z,19.07
2018-04-10T20:20:17.044Z,19.06
2018-04-10T20:22:45.507Z,19.03
2018-04-10T20:25:13.996Z,19.05
2018-04-10T20:27:42.537Z,19.03
2018-04-10T20:30:10.986Z,19.02
2018-04-10T20:32:39.449Z,18.91
2018-04-10T20:35:07.974Z,18.70
2018-04-10T20:37:36.424Z,18.65
2018-04-10T20:40:04.890Z,18.67
2018-04-10T20:42:33.352Z,18.68
2018-04-10T20:45:01.864Z,18.69
2018-04-10T20:47:30.391Z,18.64
2018-04-10T20:49:58.883Z,18.67
2018-04-10T20:52:27.368Z,18.62
2018-04-10T20:54:55.828Z,18.58
2018-04-10T20:57:24.324Z,18.51
2018-04-10T20:59:52.772Z,18.46
2018-04-10T21:02:21.272Z,18.48
2018-04-10T21:04:49.738Z,18.45
2018-04-10T21:07:18.236Z,18.41
2018-04-10T21:09:46.742Z,18.29
2018-04-10T21:12:15.285Z,18.35
2018-04-10T21:14:43.779Z,18.26
2018-04-10T21:17:12.228Z,18.32
2018-04-10T21:19:40.683Z,18.26
2018-04-10T21:22:09.194Z,18.26
2018-04-10T21:24:37.647Z,18.25
2018-04-10T21:27:06.156Z,18.29
2018-04-10T21:29:34.616Z,18.30
2018-04-10T21:32:03.096Z,18.25
2018-04-10T21:34:31.580Z,18.18
2018-04-10T21:37:00.076Z,18.17
2018-04-10T21:39:28.587Z,18.07
2018-04-10T21:41:57.068Z,17.95
2018-04-10T21:44:25.613Z,17.98
2018-04-10T21:46:54.067Z,17.97
2018-04-10T21:49:22.524Z,17.99
2018-04-10T21:51:51.024Z,18.00
2018-04-10T21:54:19.515Z,17.99
2018-04-10T21:56:47.988Z,17.95
2018-04-10T21:59:16.496Z,17.90
2018-04-10T22:01:44.971Z,17.91
2018-04-10T22:04:13.429Z,17.89
2018-04-10T22:06:41.947Z,17.79
2018-04-10T22:09:10.405Z,17.79
2018-04-10T22:11:38.978Z,17.77
2018-04-10T22:14:07.479Z,17.71
2018-04-10T22:16:35.940Z,17.66
2018-04-10T22:19:04.429Z,17.67
2018-04-10T22:21:32.885Z,17.59
2018-04-10T22:24:01.388Z,17.69
2018-04-10T22:26:29.868Z,17.65
2018-04-10T22:28:58.364Z,17.57
2018-04-10T22:31:26.865Z,17.66
2018-04-10T22:33:55.341Z,17.64
2018-04-10T22:36:23.795Z,17.65
2018-04-10T22:38:52.237Z,17.64
2018-04-10T22:41:20.691Z,17.63
2018-04-10T22:43:49.183Z,17.62
2018-04-10T22:46:17.696Z,17.60
2018-04-10T22:48:46.178Z,17.55
2018-04-10T22:51:14.696Z,17.47
2018-04-10T22:53:43.209Z,17.43
2018-04-10T22:56:11.746Z,17.37
2018-04-10T22:58:40.274Z,17.34
2018-04-10T23:01:08.817Z,17.34
2018-04-10T23:03:37.285Z,17.36
2018-04-10T23:06:05.744Z,17.32
2018-04-10T23:08:34.245Z,17.30
2018-04-10T23:11:02.704Z,17.27
2018-04-10T23:13:31.222Z,17.26
2018-04-10T23:15:59.713Z,17.27
2018-04-10T23:18:28.205Z,17.26
2018-04-10T23:20:56.664Z,17.19
2018-04-10T23:23:25.118Z,17.19
2018-04-10T23:25:53.624Z,17.15
2018-04-10T23:28:22.140Z,17.13
2018-04-10T23:30:50.613Z,17.03
2018-04-10T23:33:19.136Z,17.04
2018-04-10T23:35:47.602Z,16.99
2018-04-10T23:38:16.125Z,16.90
2018-04-10T23:40:44.604Z,16.88
2018-04-10T23:43:13.100Z,16.83
2018-04-10T23:45:41.619Z,16.78
2018-04-10T23:48:10.141Z,16.73
2018-04-10T23:50:38.719Z,16.60
2018-04-10T23:53:07.263Z,16.59
2018-04-10T23:55:35.773Z,16.55
2018-04-10T23:58:04.336Z,16.52
